Hartford, Connecticut
Traffic Map
Current Weather Conditions
Hartford, Connecticut
Clear
Clear
18°
Feels Like: 18°
Wind Chill: 18° Ceiling: Unl
Heat Index: 18° Visibility: 10mi
Dew Point: 17° Wind: 3mph
Humidity: 90% Direction: 190° (S)
Pressure: 30.01in Gusts: 0mph
Raw Report DataKHFD 270953Z 19003KT 10SM CLR 18/17 A3001 RMK AO2 SLP160 T01830167
Traffic Incident Summary
Active as of:
Severity:
Category:
InformationThere was an issue retrieving the traffic information for this location. Please try a different location or try again shortly.
Advertisements
Track Severe Weather on mobile